»·PEaware :: DAL143 KPHX-KSNA

DAL143 :: KPHX-KSNA

FLIGHT INFORMATION

Flight Status: Arrived
Operator:
Delta Air Lines
More flights by this operator :: More flights under this callsign
Pilot: Anonymous 16492 (16492)
Aircraft: BOEING 737-200
(B732)
More flights by this aircraft type
Origin: KPHX Phoenix Sky Harbor Intl
United States
Destination: KSNA John Wayne-Orange Co
United States
More flights between these airports :: More routes between these airports
Route: +KEENS2 HRRBR EMLLD DSNEE4
File this flight plan on PilotEdge
Remarks:
Altitude:
(Current/Filed)
31,000ft
Speed:
(Current/Filed)
444kts
Departed: 21-Aug-18 04:44 PM
Arrived: 21-Aug-18 05:41 PM
Distance/Time
Traveled:
293nm/0:56
Distance/Time
To Go:
Arrived

Flight Plot

Page will automatically refresh every two minutes.

Flight plan parsing failed; only flown route is shown


Map Options




Map Legend


Flown Route
Filed Route
Departure Airport
Arrival Airport
Navaid (VOR, NDB)
Fix

Horizontal Profiles

Position Reports

Time Latitude Longitude Heading Altitude Ground
Speed
21-Aug-18 16:16 33.437405 -112.008215 270 1143ft 0kts
21-Aug-18 16:17 33.437405 -112.008215 270 1143ft 0kts
21-Aug-18 16:18 33.437405 -112.008215 270 1143ft 0kts
21-Aug-18 16:19 33.437405 -112.008215 270 1143ft 0kts
21-Aug-18 16:20 33.437405 -112.008215 270 1143ft 0kts
21-Aug-18 16:21 33.437405 -112.008215 270 1143ft 0kts
21-Aug-18 16:22 33.437405 -112.008215 270 1143ft 0kts
21-Aug-18 16:23 33.437405 -112.008215 270 1143ft 0kts
21-Aug-18 16:24 33.437405 -112.008215 270 1143ft 0kts
21-Aug-18 16:25 33.437405 -112.008215 270 1143ft 0kts
21-Aug-18 16:26 33.437405 -112.008215 270 1143ft 0kts
21-Aug-18 16:27 33.437405 -112.008215 270 1143ft 0kts
21-Aug-18 16:28 33.437405 -112.008215 270 1143ft 0kts
21-Aug-18 16:29 33.437405 -112.008215 270 1143ft 0kts
21-Aug-18 16:30 33.437405 -112.008215 270 1143ft 0kts
21-Aug-18 16:31 33.437409 -112.008024 269 1143ft 2kts
21-Aug-18 16:32 33.437283 -112.007374 339 1143ft 2kts
21-Aug-18 16:33 33.437115 -112.007358 0 1143ft 0kts
21-Aug-18 16:34 33.437115 -112.007358 0 1143ft 0kts
21-Aug-18 16:35 33.437115 -112.007358 0 1143ft 0kts
21-Aug-18 16:36 33.437115 -112.007358 0 1143ft 0kts
21-Aug-18 16:37 33.437115 -112.007358 0 1143ft 0kts
21-Aug-18 16:38 33.438582 -112.007350 359 1143ft 0kts
21-Aug-18 16:39 33.439753 -112.004527 90 1143ft 31kts
21-Aug-18 16:40 33.439743 -111.994508 89 1143ft 28kts
21-Aug-18 16:41 33.439835 -111.990533 33 1143ft 0kts
21-Aug-18 16:42 33.439835 -111.990533 33 1143ft 0kts
21-Aug-18 16:43 33.439839 -111.990530 33 1143ft 0kts
21-Aug-18 16:44 33.440830 -111.992735 270 1143ft 0kts
21-Aug-18 16:45 33.440825 -112.018875 269 1207ft 182kts
21-Aug-18 16:46 33.435164 -112.082112 246 3914ft 214kts
21-Aug-18 16:47 33.406455 -112.156403 244 6508ft 258kts
21-Aug-18 16:48 33.398595 -112.240834 277 9098ft 271kts
21-Aug-18 16:49 33.411342 -112.335221 278 11063ft 300kts
21-Aug-18 16:50 33.427467 -112.446220 278 11731ft 364kts
21-Aug-18 16:51 33.445063 -112.566071 278 13769ft 371kts
21-Aug-18 16:52 33.451165 -112.688958 268 15498ft 377kts
21-Aug-18 16:53 33.456714 -112.815345 278 17039ft 387kts
21-Aug-18 16:54 33.479333 -112.941250 279 18502ft 392kts
21-Aug-18 16:55 33.503068 -113.069262 279 19814ft 395kts
21-Aug-18 16:56 33.526920 -113.198239 279 20888ft 401kts
21-Aug-18 16:57 33.551019 -113.329289 279 21864ft 406kts
21-Aug-18 16:58 33.575311 -113.462222 279 22736ft 410kts
21-Aug-18 16:59 33.600086 -113.596115 279 23507ft 415kts
21-Aug-18 17:00 33.624907 -113.729675 279 24189ft 418kts
21-Aug-18 17:02 33.700385 -113.995684 291 25367ft 430kts
21-Aug-18 17:03 33.750207 -114.126396 287 25873ft 431kts
21-Aug-18 17:04 33.771827 -114.266563 275 26496ft 423kts
21-Aug-18 17:05 33.788180 -114.404499 274 27204ft 420kts
21-Aug-18 17:06 33.804228 -114.543577 274 27644ft 422kts
21-Aug-18 17:07 33.820013 -114.681618 273 28844ft 403kts
21-Aug-18 17:08 33.834735 -114.812065 273 29870ft 391kts
21-Aug-18 17:09 33.847767 -114.928771 273 29878ft 404kts
21-Aug-18 17:10 33.862783 -115.063689 273 29878ft 415kts
21-Aug-18 17:11 33.878085 -115.202604 273 29876ft 424kts
21-Aug-18 17:12 33.893525 -115.344253 273 29846ft 430kts
21-Aug-18 17:13 33.908833 -115.486172 273 29817ft 428kts
21-Aug-18 17:14 33.923891 -115.627420 273 29818ft 425kts
21-Aug-18 17:15 33.933570 -115.753379 271 29835ft 422kts
21-Aug-18 17:16 33.942543 -115.880043 271 28612ft 413kts
21-Aug-18 17:17 33.951946 -116.014978 271 27218ft 405kts
21-Aug-18 17:18 33.961064 -116.148047 271 25475ft 396kts
21-Aug-18 17:19 33.955110 -116.277295 259 23877ft 381kts
21-Aug-18 17:20 33.941005 -116.395120 258 23545ft 345kts
21-Aug-18 17:21 33.925894 -116.517103 259 20930ft 369kts
21-Aug-18 17:22 33.910775 -116.635445 259 19575ft 364kts
21-Aug-18 17:23 33.897230 -116.740093 258 17629ft 354kts
21-Aug-18 17:24 33.885756 -116.842399 260 15769ft 346kts
21-Aug-18 17:25 33.873928 -116.950119 260 13790ft 338kts
21-Aug-18 17:26 33.861845 -117.059425 261 12098ft 319kts
21-Aug-18 17:27 33.851326 -117.154136 261 12096ft 257kts
21-Aug-18 17:28 33.841629 -117.240533 261 10853ft 253kts
21-Aug-18 17:29 33.832294 -117.323168 261 9166ft 246kts
21-Aug-18 17:30 33.823240 -117.402974 261 8100ft 230kts
21-Aug-18 17:31 33.808169 -117.477456 250 7714ft 240kts
21-Aug-18 17:32 33.800546 -117.554068 271 7694ft 235kts
21-Aug-18 17:33 33.823924 -117.622307 301 7605ft 207kts
21-Aug-18 17:34 33.848282 -117.666042 301 6964ft 188kts
21-Aug-18 17:35 33.875140 -117.717160 284 5256ft 185kts
21-Aug-18 17:36 33.845222 -117.760636 210 3255ft 186kts
21-Aug-18 17:37 33.805785 -117.786132 210 1991ft 147kts
21-Aug-18 17:38 33.775256 -117.805667 209 1518ft 118kts
21-Aug-18 17:39 33.743201 -117.826732 210 1753ft 140kts
21-Aug-18 17:40 33.712827 -117.845573 208 640ft 121kts
21-Aug-18 17:41 33.684289 -117.863479 209 66ft 114kts
21-Aug-18 17:42 33.669067 -117.871471 104 65ft 2kts
21-Aug-18 17:43 33.669066 -117.871466 105 65ft 0kts
21-Aug-18 17:44 33.673495 -117.866855 32 65ft 25kts
21-Aug-18 17:45 33.678048 -117.863452 111 65ft 7kts
21-Aug-18 17:46 33.677945 -117.863196 116 65ft 0kts
21-Aug-18 17:47 33.677945 -117.863196 116 65ft 0kts
21-Aug-18 17:48 33.677945 -117.863196 116 65ft 0kts
21-Aug-18 17:49 33.677945 -117.863196 116 65ft 0kts
21-Aug-18 17:50 33.677945 -117.863196 116 65ft 0kts
21-Aug-18 17:51 33.677945 -117.863196 116 65ft 0kts
21-Aug-18 17:52 33.677945 -117.863196 116 65ft 0kts
21-Aug-18 17:53 33.677945 -117.863196 116 65ft 0kts
21-Aug-18 17:54 33.677945 -117.863196 116 65ft 0kts
21-Aug-18 17:55 33.677945 -117.863196 116 65ft 0kts
21-Aug-18 17:56 33.677945 -117.863196 116 65ft 0kts

Navigation Log

Ident Type
Flight plan parsing failed, navigation log unavailable